Time;durP1;ratioP1;P1;durP2;ratioP2;P2;SDS_P1;SDS_P2;PMS_P1;PMS_P2;Temp;Humidity;BMP_temperature;BMP_pressure;BME280_temperature;BME280_humidity;BME280_pressure;Samples;Min_cycle;Max_cycle;Signal;HPM_P1;HPM_P2
2022/06/27 00:01:50;;;;;;;37.58;23.30;;;;;;;17.94;81.42;100753.84;5124123;28;20032;-72
2022/06/27 00:04:15;;;;;;;36.05;22.50;;;;;;;17.93;81.61;100763.53;5105528;28;20024;-71
2022/06/27 00:06:41;;;;;;;39.33;22.23;;;;;;;17.93;81.74;100766.16;5124055;28;20016;-72
2022/06/27 00:09:06;;;;;;;35.88;22.23;;;;;;;17.98;81.40;100766.00;5123958;28;20032;-71
2022/06/27 00:11:32;;;;;;;36.67;22.85;;;;;;;17.94;81.50;100754.72;5105301;28;20019;-71
2022/06/27 00:13:57;;;;;;;40.60;22.98;;;;;;;17.98;81.50;100760.75;5123287;28;20080;-70
2022/06/27 00:16:23;;;;;;;40.47;23.35;;;;;;;17.93;81.56;100762.66;5105488;28;20019;-72
2022/06/27 00:18:48;;;;;;;34.13;20.77;;;;;;;17.99;81.70;100769.50;5123816;28;20479;-69
2022/06/27 00:21:13;;;;;;;38.65;21.80;;;;;;;17.95;82.23;100768.72;5123655;28;20024;-71
2022/06/27 00:23:39;;;;;;;32.25;22.98;;;;;;;17.94;81.97;100770.47;5105527;28;20019;-71
2022/06/27 00:26:04;;;;;;;31.48;21.88;;;;;;;17.93;82.03;100770.53;5123656;28;20106;-71
2022/06/27 00:28:30;;;;;;;39.05;22.30;;;;;;;17.92;82.03;100755.69;5124036;28;20023;-70
2022/06/27 00:30:55;;;;;;;47.78;22.92;;;;;;;17.95;81.90;100758.22;5123652;28;20024;-72
2022/06/27 00:33:21;;;;;;;35.05;20.50;;;;;;;17.94;82.28;100767.00;5123509;28;20023;-71
2022/06/27 00:35:46;;;;;;;33.45;21.65;;;;;;;17.90;82.46;100766.25;5123378;28;20023;-71
2022/06/27 00:38:12;;;;;;;29.10;21.63;;;;;;;17.92;82.31;100769.66;5123875;28;20101;-71
2022/06/27 00:40:37;;;;;;;33.42;21.63;;;;;;;17.93;82.59;100770.53;5123713;28;20114;-71
2022/06/27 00:43:02;;;;;;;31.33;20.58;;;;;;;17.94;82.26;100764.34;5123774;28;20027;-71
2022/06/27 00:45:28;;;;;;;37.00;23.45;;;;;;;17.90;82.37;100758.38;5123681;28;20053;-71
2022/06/27 00:47:53;;;;;;;33.97;22.02;;;;;;;17.91;82.70;100769.72;5123795;28;20046;-71
2022/06/27 00:50:19;;;;;;;36.42;22.58;;;;;;;17.86;82.45;100759.38;5123612;28;20096;-71
2022/06/27 00:52:44;;;;;;;36.20;22.65;;;;;;;17.90;82.45;100768.00;5123775;28;20356;-71
2022/06/27 00:55:10;;;;;;;35.45;22.70;;;;;;;17.90;82.81;100760.13;5123504;28;20027;-70
2022/06/27 00:57:36;;;;;;;39.63;23.63;;;;;;;17.90;82.63;100752.25;5123558;28;20130;-70
2022/06/27 01:00:03;;;;;;;42.72;23.25;;;;;;;17.90;82.58;100752.25;5123617;28;20023;-70
2022/06/27 01:02:29;;;;;;;37.95;22.42;;;;;;;17.89;82.63;100750.53;5123328;28;20023;-70
2022/06/27 01:04:54;;;;;;;34.10;22.92;;;;;;;17.89;82.81;100751.38;5123079;28;20016;-69
2022/06/27 01:07:20;;;;;;;39.45;24.13;;;;;;;17.88;82.61;100743.56;5123497;28;20028;-71
2022/06/27 01:09:45;;;;;;;37.20;25.60;;;;;;;17.87;82.55;100745.34;5123501;28;20027;-70
2022/06/27 01:12:11;;;;;;;44.00;25.75;;;;;;;17.83;82.70;100736.72;5123485;28;20023;-70
2022/06/27 01:14:37;;;;;;;47.97;27.27;;;;;;;17.83;82.96;100747.22;5123165;28;20020;-71
2022/06/27 01:17:03;;;;;;;36.67;24.30;;;;;;;17.82;83.02;100742.88;5123567;28;20039;-70
2022/06/27 01:19:28;;;;;;;32.17;24.13;;;;;;;17.76;83.39;100735.22;5123363;28;20114;-70
2022/06/27 01:21:55;;;;;;;46.20;26.00;;;;;;;17.73;83.65;100731.81;5123283;28;20055;-70
2022/06/27 01:24:23;;;;;;;34.80;24.83;;;;;;;17.77;83.75;100742.16;5125638;28;20023;-71
2022/06/27 01:26:49;;;;;;;44.08;26.08;;;;;;;17.79;83.67;100742.13;5127200;28;20034;-70
2022/06/27 01:29:15;;;;;;;37.08;24.92;;;;;;;17.81;83.86;100742.94;5108643;28;20059;-70
2022/06/27 01:31:41;;;;;;;40.33;25.23;;;;;;;17.81;83.80;100738.50;5127034;28;20091;-70
2022/06/27 01:34:07;;;;;;;38.95;24.38;;;;;;;17.84;83.96;100743.66;5126962;28;20020;-70
2022/06/27 01:36:43;;;;;;;40.80;24.88;;;;;;;17.82;83.91;100735.00;5126580;28;20039;-71
2022/06/27 01:39:16;;;;;;;35.60;24.40;;;;;;;17.81;83.97;100741.13;5127141;28;20031;-70
2022/06/27 01:41:52;;;;;;;36.80;24.80;;;;;;;17.80;84.05;100739.44;5126838;28;20099;-71
2022/06/27 01:44:19;;;;;;;33.40;25.08;;;;;;;17.79;84.13;100747.38;5126712;28;20015;-70
2022/06/27 01:46:59;;;;;;;35.58;24.60;;;;;;;17.81;83.63;100746.41;5126992;28;20019;-70
2022/06/27 01:49:26;;;;;;;33.38;23.27;;;;;;;17.81;84.08;100749.03;5126545;28;20026;-70
2022/06/27 01:51:51;;;;;;;30.60;22.52;;;;;;;17.83;84.14;100746.34;5126260;28;20036;-70
2022/06/27 01:54:20;;;;;;;38.70;22.27;;;;;;;17.84;84.09;100751.53;5126485;28;20019;-69
2022/06/27 01:56:46;;;;;;;31.30;22.38;;;;;;;17.86;83.87;100758.53;5126302;28;20019;-71
2022/06/27 01:59:13;;;;;;;32.42;22.38;;;;;;;17.89;84.08;100750.53;5126422;28;20072;-70
2022/06/27 02:01:44;;;;;;;29.23;22.58;;;;;;;17.88;84.01;100743.56;5126405;28;20054;-71
2022/06/27 02:04:11;;;;;;;36.63;21.73;;;;;;;17.88;84.08;100739.19;5126286;28;20077;-70
2022/06/27 02:06:37;;;;;;;29.50;20.42;;;;;;;17.88;84.35;100733.06;5126142;28;20019;-70
2022/06/27 02:09:05;;;;;;;27.63;20.08;;;;;;;17.91;84.25;100730.31;5126368;28;20034;-70
2022/06/27 02:11:31;;;;;;;30.98;22.67;;;;;;;17.90;84.00;100732.09;5126007;28;20047;-70
2022/06/27 02:13:58;;;;;;;31.52;21.00;;;;;;;17.94;84.13;100727.59;5126165;28;20032;-70
2022/06/27 02:16:24;;;;;;;26.73;21.63;;;;;;;17.96;83.92;100726.66;5126115;28;20415;-70
2022/06/27 02:18:49;;;;;;;31.15;22.55;;;;;;;17.95;83.87;100716.19;5126074;28;20335;-71
2022/06/27 02:21:20;;;;;;;31.17;21.85;;;;;;;17.96;83.68;100724.03;5125944;28;20045;-71
2022/06/27 02:23:47;;;;;;;31.85;21.27;;;;;;;17.93;84.24;100721.50;5125846;28;20019;-71
2022/06/27 02:26:13;;;;;;;29.17;20.75;;;;;;;17.93;84.17;100721.50;5125927;28;20033;-70
2022/06/27 02:28:39;;;;;;;33.25;23.10;;;;;;;17.94;84.50;100724.97;5125775;28;20016;-71
2022/06/27 02:31:06;;;;;;;28.27;22.35;;;;;;;17.93;84.54;100720.63;5125796;28;20020;-71
2022/06/27 02:33:42;;;;;;;36.40;22.08;;;;;;;17.95;84.32;100724.06;5125698;28;20026;-70
2022/06/27 02:36:10;;;;;;;27.58;22.00;;;;;;;17.98;84.47;100715.22;5125020;28;20020;-70
2022/06/27 02:38:39;;;;;;;31.17;22.55;;;;;;;17.99;84.40;100715.16;5125967;28;20075;-71
2022/06/27 02:41:07;;;;;;;36.67;22.98;;;;;;;18.02;84.11;100715.06;5125584;28;20019;-70
2022/06/27 02:43:35;;;;;;;32.75;22.65;;;;;;;17.99;83.84;100707.28;5125943;28;20055;-70
2022/06/27 02:46:01;;;;;;;29.63;21.75;;;;;;;17.99;84.15;100702.03;5125689;28;20407;-70
2022/06/27 02:48:30;;;;;;;28.48;22.25;;;;;;;17.96;84.07;100699.50;5125915;28;20026;-71
2022/06/27 02:51:00;;;;;;;28.85;21.27;;;;;;;17.95;84.14;100697.81;5125706;28;20039;-70
2022/06/27 02:53:31;;;;;;;32.72;21.00;;;;;;;17.99;83.96;100693.31;5125571;28;20030;-71
2022/06/27 02:56:01;;;;;;;27.85;22.05;;;;;;;17.98;83.89;100692.44;5125573;28;20034;-70
2022/06/27 02:58:45;;;;;;;28.63;21.45;;;;;;;18.01;84.18;100692.34;5125485;28;20035;-71
2022/06/27 03:01:12;;;;;;;31.23;22.10;;;;;;;18.03;84.25;100689.66;5125189;28;20031;-71
2022/06/27 03:03:40;;;;;;;30.73;22.35;;;;;;;18.04;84.21;100681.72;5125333;28;20031;-69
2022/06/27 03:06:07;;;;;;;26.15;20.85;;;;;;;18.09;83.90;100679.78;5124859;28;20122;-69
2022/06/27 03:08:51;;;;;;;28.60;20.67;;;;;;;18.16;83.98;100679.59;5125254;28;20020;-69
2022/06/27 03:11:19;;;;;;;28.92;20.50;;;;;;;18.21;83.81;100682.94;5125014;28;20024;-70
2022/06/27 03:13:45;;;;;;;28.05;19.55;;;;;;;18.24;83.71;100677.56;5125003;28;20022;-69
2022/06/27 03:16:12;;;;;;;32.03;19.13;;;;;;;18.30;84.25;100681.72;5124867;28;20020;-70
2022/06/27 03:18:38;;;;;;;25.67;18.58;;;;;;;18.46;84.44;100692.53;5124889;28;20030;-69
2022/06/27 03:21:04;;;;;;;22.17;17.42;;;;;;;18.66;84.73;100683.03;5124695;28;20344;-69
2022/06/27 03:23:29;;;;;;;26.60;17.88;;;;;;;18.89;84.48;100679.53;5124865;28;20020;-70
2022/06/27 03:25:55;;;;;;;18.80;16.48;;;;;;;19.18;84.19;100674.91;5124565;28;20035;-70
2022/06/27 03:28:21;;;;;;;21.38;16.75;;;;;;;19.46;83.76;100682.59;5124711;28;20031;-70
2022/06/27 03:30:47;;;;;;;21.90;15.90;;;;;;;19.61;82.93;100681.94;5124518;28;20541;-70
2022/06/27 03:33:13;;;;;;;19.58;16.42;;;;;;;19.67;82.07;100688.72;5124645;28;20196;-69
2022/06/27 03:35:38;;;;;;;23.50;15.98;;;;;;;19.84;81.81;100690.63;5106165;28;20029;-69
2022/06/27 03:38:04;;;;;;;20.60;15.27;;;;;;;20.05;81.39;100694.16;5124388;28;20037;-70
2022/06/27 03:40:29;;;;;;;19.23;15.60;;;;;;;20.28;80.12;100691.41;5124395;28;20027;-69
2022/06/27 03:42:55;;;;;;;22.10;16.55;;;;;;;20.27;78.62;100692.34;5124621;28;20103;-70
2022/06/27 03:45:20;;;;;;;19.25;17.20;;;;;;;20.12;77.76;100693.88;5124399;28;20024;-70
2022/06/27 03:47:57;;;;;;;22.10;16.25;;;;;;;19.97;77.58;100675.16;5123413;28;20510;-70
2022/06/27 03:50:24;;;;;;;19.45;15.75;;;;;;;19.82;77.33;100680.16;5123976;28;20057;-69
2022/06/27 03:52:50;;;;;;;17.35;14.77;;;;;;;19.79;77.44;100675.03;5123994;28;20051;-69
2022/06/27 03:55:16;;;;;;;19.27;15.02;;;;;;;19.92;77.61;100679.78;5124255;28;20043;-69
2022/06/27 03:57:48;;;;;;;18.65;14.30;;;;;;;20.05;77.68;100675.72;5124167;28;20039;-72
2022/06/27 04:00:15;;;;;;;18.30;14.40;;;;;;;20.20;77.02;100678.59;5123992;28;20055;-69
2022/06/27 04:02:41;;;;;;;17.80;13.73;;;;;;;20.39;76.29;100685.66;5105776;28;20027;-70
2022/06/27 04:05:07;;;;;;;16.73;14.45;;;;;;;20.63;76.20;100678.41;5123596;28;20023;-68
2022/06/27 04:07:32;;;;;;;17.15;13.20;;;;;;;20.91;75.76;100686.81;5124166;28;20024;-70
2022/06/27 04:09:58;;;;;;;17.67;14.85;;;;;;;21.09;74.95;100673.66;5123986;28;20062;-68
2022/06/27 04:12:24;;;;;;;18.95;14.73;;;;;;;20.99;73.72;100660.09;5124126;28;20028;-70
2022/06/27 04:14:49;;;;;;;21.00;15.07;;;;;;;20.81;73.63;100665.28;5123787;28;20083;-69
2022/06/27 04:17:15;;;;;;;16.35;14.65;;;;;;;20.60;73.25;100661.88;5123974;28;20486;-69
2022/06/27 04:19:40;;;;;;;19.92;15.50;;;;;;;20.31;73.83;100644.69;5123787;28;20034;-69
2022/06/27 04:22:05;;;;;;;23.88;15.60;;;;;;;20.10;74.22;100635.97;5123664;28;20027;-71
2022/06/27 04:24:31;;;;;;;20.38;17.05;;;;;;;19.91;74.90;100638.53;5123876;28;20083;-70
2022/06/27 04:26:56;;;;;;;19.65;17.60;;;;;;;19.70;75.12;100635.91;5123820;28;20057;-71
2022/06/27 04:29:22;;;;;;;20.00;17.58;;;;;;;19.51;76.27;100626.19;5123794;28;20023;-64
2022/06/27 04:31:47;;;;;;;21.42;17.40;;;;;;;19.46;77.20;100617.63;5123645;28;20035;-65
2022/06/27 04:34:13;;;;;;;19.70;15.77;;;;;;;19.65;78.97;100606.31;5123965;28;20024;-66
2022/06/27 04:36:40;;;;;;;17.92;16.20;;;;;;;20.16;79.26;100616.41;5105058;28;20112;-66
2022/06/27 04:39:06;;;;;;;20.60;15.88;;;;;;;20.59;79.10;100612.69;5123976;28;20074;-65
2022/06/27 04:41:32;;;;;;;15.95;14.27;;;;;;;21.21;77.88;100612.38;5123919;28;20085;-65
2022/06/27 04:43:57;;;;;;;17.27;15.57;;;;;;;21.78;77.22;100607.75;5123764;28;20498;-65
2022/06/27 04:46:23;;;;;;;19.13;14.82;;;;;;;22.24;74.48;100607.09;5123937;28;20058;-64
2022/06/27 04:48:48;;;;;;;17.58;14.48;;;;;;;22.49;73.26;100611.00;5123766;28;20043;-63
2022/06/27 04:51:14;;;;;;;16.30;14.60;;;;;;;22.80;72.76;100589.94;5123157;28;20043;-64
2022/06/27 04:53:41;;;;;;;18.02;14.75;;;;;;;23.14;71.35;100601.22;5123479;28;20054;-65
2022/06/27 04:56:08;;;;;;;16.60;15.00;;;;;;;23.24;70.19;100596.22;5123847;28;20084;-64
2022/06/27 04:58:34;;;;;;;16.02;14.30;;;;;;;23.34;69.40;100590.41;5124678;28;20058;-64
2022/06/27 05:01:00;;;;;;;17.52;15.93;;;;;;;23.26;68.49;100589.03;5127479;28;20024;-63
2022/06/27 05:03:26;;;;;;;17.95;16.17;;;;;;;23.07;68.31;100591.94;5127741;28;20023;-63
2022/06/27 05:05:52;;;;;;;17.15;15.38;;;;;;;22.94;68.44;100602.38;5127326;28;20020;-62
2022/06/27 05:08:18;;;;;;;20.13;15.90;;;;;;;22.88;68.84;100606.25;5127284;28;20035;-62
2022/06/27 05:10:43;;;;;;;16.38;14.60;;;;;;;23.01;69.04;100609.03;5127371;28;20027;-63
2022/06/27 05:13:09;;;;;;;18.00;14.68;;;;;;;23.31;68.66;100602.00;5127334;28;20031;-65
2022/06/27 05:15:36;;;;;;;16.40;14.77;;;;;;;23.60;68.08;100604.75;5127241;28;20103;-63
2022/06/27 05:18:03;;;;;;;15.80;14.27;;;;;;;23.74;67.30;100603.03;5127247;28;20036;-62
2022/06/27 05:20:30;;;;;;;15.10;13.68;;;;;;;23.99;66.65;100590.94;5126962;28;20020;-64
2022/06/27 05:22:56;;;;;;;15.65;14.07;;;;;;;24.27;65.95;100597.19;5127378;28;20016;-62
2022/06/27 05:25:21;;;;;;;14.20;12.93;;;;;;;24.47;64.67;100595.88;5127064;28;20022;-63
2022/06/27 05:27:47;;;;;;;15.82;14.32;;;;;;;24.48;64.56;100587.00;5127022;28;20498;-63
2022/06/27 05:30:13;;;;;;;16.38;14.70;;;;;;;24.48;64.09;100584.34;5126796;28;20019;-63
2022/06/27 05:32:39;;;;;;;16.13;14.40;;;;;;;24.47;64.02;100589.75;5126923;28;20027;-64
2022/06/27 05:35:04;;;;;;;16.83;15.23;;;;;;;24.38;64.25;100576.13;5126751;28;20027;-65
2022/06/27 05:37:30;;;;;;;15.80;14.18;;;;;;;24.32;63.76;100570.34;5126993;28;20023;-65
2022/06/27 05:39:56;;;;;;;15.13;13.60;;;;;;;24.29;63.58;100570.56;5127163;28;20031;-64
2022/06/27 10:47:33;;;;;;;14.52;7.93;;;;;;;26.06;52.10;100552.53;5143536;27;20050;-72
2022/06/27 10:50:15;;;;;;;11.93;8.50;;;;;;;25.68;52.32;100553.47;5146202;27;20056;-72
2022/06/27 10:52:41;;;;;;;14.15;8.75;;;;;;;25.34;53.68;100538.03;5145925;27;20023;-71
2022/06/27 10:55:24;;;;;;;13.13;9.45;;;;;;;25.27;53.73;100532.31;5146001;27;20019;-72
2022/06/27 10:57:52;;;;;;;12.70;9.90;;;;;;;25.00;53.86;100534.09;5145218;27;20080;-72
2022/06/27 11:00:37;;;;;;;14.55;9.27;;;;;;;24.90;54.49;100546.28;5146036;27;20083;-72
2022/06/27 11:03:03;;;;;;;12.63;10.10;;;;;;;24.86;54.74;100561.53;5145830;27;20485;-71
2022/06/27 11:05:32;;;;;;;11.02;9.38;;;;;;;24.94;55.48;100560.19;5145856;27;20037;-71
2022/06/27 11:07:58;;;;;;;13.57;8.60;;;;;;;24.94;56.17;100576.97;5145610;27;20018;-71
2022/06/27 11:10:24;;;;;;;12.68;8.25;;;;;;;24.95;56.30;100601.75;5145971;27;20023;-71
2022/06/27 11:12:49;;;;;;;16.00;8.30;;;;;;;24.84;56.32;100584.69;5145643;27;20421;-70
2022/06/27 11:15:15;;;;;;;10.68;8.30;;;;;;;24.80;56.89;100575.22;5145680;27;20043;-72
2022/06/27 11:17:42;;;;;;;19.88;8.82;;;;;;;24.87;56.63;100579.16;5145616;27;20026;-71
2022/06/27 11:20:09;;;;;;;10.85;8.38;;;;;;;24.89;56.77;100565.81;5145633;27;20027;-71
2022/06/27 11:22:36;;;;;;;10.48;8.02;;;;;;;24.97;56.61;100560.84;5145414;27;20019;-71
2022/06/27 11:25:03;;;;;;;9.30;7.65;;;;;;;25.13;56.38;100550.03;5145348;27;20026;-72
2022/06/27 11:27:50;;;;;;;13.82;8.05;;;;;;;25.32;56.27;100538.13;5145486;27;20023;-71
2022/06/27 11:33:16;;;;;;;13.85;8.63;;;;;;;25.58;55.23;100537.28;5145256;27;20034;-71
2022/06/27 11:35:42;;;;;;;15.52;8.05;;;;;;;25.58;55.07;100529.31;5145229;27;20440;-72
2022/06/27 11:38:08;;;;;;;12.52;8.77;;;;;;;25.56;55.36;100528.59;5145368;27;20533;-72
2022/06/27 11:40:34;;;;;;;13.10;8.38;;;;;;;25.49;55.61;100518.38;5145256;27;20023;-71
2022/06/27 11:42:59;;;;;;;14.25;8.40;;;;;;;25.54;56.01;100517.19;5145192;27;20030;-71
2022/06/27 11:45:25;;;;;;;16.63;8.38;;;;;;;25.71;55.38;100522.22;5144984;27;20446;-72
2022/06/27 11:47:50;;;;;;;15.48;7.25;;;;;;;25.85;55.40;100510.59;5145116;27;20049;-71
2022/06/27 11:50:19;;;;;;;13.35;6.18;;;;;;;25.96;55.22;100506.31;5145017;27;20034;-72
2022/06/27 11:52:53;;;;;;;16.00;6.38;;;;;;;26.02;54.96;100492.56;5144782;27;20027;-72
2022/06/27 11:55:20;;;;;;;13.95;5.78;;;;;;;26.08;54.89;100493.91;5144859;27;20050;-71
2022/06/27 11:57:56;;;;;;;14.55;5.32;;;;;;;26.26;54.72;100489.06;5144739;27;20015;-71
2022/06/27 12:00:26;;;;;;;13.52;5.60;;;;;;;26.43;54.60;100485.16;5144879;27;20027;-71
2022/06/27 12:03:00;;;;;;;12.75;4.93;;;;;;;26.67;54.03;100484.28;5144588;27;20027;-71
2022/06/27 12:05:26;;;;;;;12.95;5.60;;;;;;;26.72;53.61;100482.13;5144953;27;20016;-72
2022/06/27 12:08:05;;;;;;;12.95;5.85;;;;;;;26.80;53.79;100476.22;5143976;27;20080;-71
2022/06/27 12:11:26;;;;;;;13.65;5.70;;;;;;;26.75;53.43;100472.19;5144746;27;20034;-72
2022/06/27 12:13:58;;;;;;;13.52;6.05;;;;;;;26.45;53.10;100463.75;5111067;27;20055;-71
2022/06/27 12:16:23;;;;;;;11.23;6.15;;;;;;;26.19;54.00;100456.75;5144729;27;20019;-71
2022/06/27 12:18:51;;;;;;;11.80;6.50;;;;;;;26.14;54.17;100463.34;5144593;27;20027;-72
2022/06/27 12:21:21;;;;;;;13.25;6.80;;;;;;;26.19;54.06;100448.75;5144205;27;20073;-72
2022/06/27 12:23:48;;;;;;;13.05;7.80;;;;;;;26.27;54.05;100447.31;5144588;27;20037;-72
2022/06/27 12:26:13;;;;;;;14.80;7.05;;;;;;;26.32;54.08;100446.06;5144472;27;20016;-71
2022/06/27 12:28:43;;;;;;;15.60;7.95;;;;;;;26.44;54.46;100446.94;5144669;28;20038;-72
2022/06/27 12:31:08;;;;;;;13.85;8.13;;;;;;;26.51;53.56;100443.81;5144314;28;20029;-72
2022/06/27 12:33:34;;;;;;;20.13;8.30;;;;;;;26.55;53.30;100439.97;5144521;28;20087;-72
2022/06/27 12:35:59;;;;;;;16.42;9.63;;;;;;;26.59;53.08;100442.28;5144209;28;20034;-72
2022/06/27 12:38:25;;;;;;;19.17;8.88;;;;;;;26.57;53.10;100438.03;5144531;28;20015;-71
2022/06/27 12:41:11;;;;;;;19.08;8.88;;;;;;;26.61;52.86;100421.69;5144476;28;20019;-72
2022/06/27 12:43:40;;;;;;;10.43;9.25;;;;;;;26.54;53.03;100422.28;5144517;28;20045;-72
2022/06/27 12:46:05;;;;;;;12.10;8.80;;;;;;;26.47;53.35;100422.75;5144211;28;20067;-72
2022/06/27 12:48:32;;;;;;;13.02;9.32;;;;;;;26.39;53.53;100419.00;5144485;28;20518;-71
2022/06/27 12:50:57;;;;;;;14.40;9.55;;;;;;;26.37;53.33;100413.78;5144081;28;20034;-72
2022/06/27 12:53:22;;;;;;;14.20;10.02;;;;;;;26.29;53.45;100413.47;5144147;28;20478;-72
2022/06/27 12:55:48;;;;;;;11.50;10.27;;;;;;;26.15;53.74;100410.03;5144342;28;20019;-72
2022/06/27 12:58:13;;;;;;;10.70;9.60;;;;;;;26.08;54.21;100422.09;5144107;28;20555;-72
2022/06/27 13:00:38;;;;;;;16.83;9.57;;;;;;;25.96;54.47;100407.91;5144495;28;20031;-72
2022/06/27 13:03:04;;;;;;;11.30;9.45;;;;;;;25.95;54.40;100407.06;5144279;28;20023;-72
2022/06/27 13:05:31;;;;;;;10.77;9.52;;;;;;;25.93;54.60;100400.13;5144254;28;20475;-72
2022/06/27 13:07:57;;;;;;;14.77;9.82;;;;;;;25.99;54.57;100402.38;5125362;28;20020;-72
2022/06/27 13:10:22;;;;;;;13.00;10.13;;;;;;;26.07;55.10;100399.97;5144320;28;20034;-72
2022/06/27 13:12:48;;;;;;;16.05;10.45;;;;;;;26.17;55.01;100404.59;5144223;28;20113;-71
2022/06/27 13:15:15;;;;;;;15.63;9.55;;;;;;;26.34;55.21;100395.38;5144115;28;20023;-72
2022/06/27 13:17:40;;;;;;;12.60;8.60;;;;;;;26.52;54.93;100403.75;5144008;28;20027;-72
2022/06/27 13:20:09;;;;;;;13.48;9.10;;;;;;;26.77;54.48;100406.38;5146057;27;20045;-72
2022/06/27 13:22:35;;;;;;;10.50;9.38;;;;;;;27.04;54.19;100399.88;5147586;27;20027;-72
2022/06/27 13:25:00;;;;;;;14.10;8.77;;;;;;;27.28;53.82;100390.91;5147885;27;20026;-72
2022/06/27 13:27:26;;;;;;;13.30;9.57;;;;;;;27.53;53.43;100394.25;5147910;27;20442;-72
2022/06/27 13:29:51;;;;;;;10.68;9.10;;;;;;;27.68;52.75;100381.53;5147894;27;20019;-72
2022/06/27 13:32:17;;;;;;;11.98;9.40;;;;;;;27.95;52.49;100391.75;5147506;27;20030;-72
2022/06/27 13:34:42;;;;;;;10.70;8.25;;;;;;;28.16;51.67;100387.41;5147301;27;20027;-72
2022/06/27 13:37:07;;;;;;;12.15;9.38;;;;;;;28.37;51.35;100376.75;5147158;27;20030;-72
2022/06/27 13:39:33;;;;;;;15.98;9.40;;;;;;;28.60;50.57;100379.28;5147695;27;20023;-72
2022/06/27 13:42:02;;;;;;;10.18;8.82;;;;;;;28.79;50.04;100377.69;5147525;27;20029;-72
2022/06/27 13:44:28;;;;;;;10.45;8.80;;;;;;;28.91;49.76;100371.31;5147583;27;20019;-72
2022/06/27 13:46:53;;;;;;;11.57;8.20;;;;;;;29.04;49.67;100357.72;5147284;27;20054;-72
2022/06/27 13:49:18;;;;;;;11.27;8.98;;;;;;;29.15;49.28;100361.28;5147359;27;20031;-72
2022/06/27 13:51:44;;;;;;;14.85;8.55;;;;;;;29.31;49.15;100364.25;5147282;27;20034;-72
2022/06/27 13:54:09;;;;;;;10.90;8.07;;;;;;;29.55;49.21;100367.56;5147275;27;20054;-71
2022/06/27 13:56:34;;;;;;;11.85;7.95;;;;;;;29.62;48.06;100363.38;5147513;27;20026;-71
2022/06/27 13:59:01;;;;;;;10.23;8.23;;;;;;;29.79;47.57;100363.69;5147456;27;20015;-72
2022/06/27 14:01:27;;;;;;;11.07;8.52;;;;;;;29.87;47.21;100361.16;5147105;27;20080;-71
2022/06/27 14:03:52;;;;;;;11.98;9.13;;;;;;;29.99;46.84;100363.66;5147126;27;20027;-72
2022/06/27 14:09:02;;;;;;;17.23;9.15;;;;;;;30.12;46.61;100360.69;5146881;27;20547;-72
2022/06/27 14:11:27;;;;;;;14.20;9.23;;;;;;;29.99;46.19;100359.16;5146895;27;20039;-72
2022/06/27 14:13:53;;;;;;;10.95;9.18;;;;;;;30.09;45.77;100363.66;5147016;27;20015;-72
2022/06/27 14:16:22;;;;;;;14.20;9.00;;;;;;;29.90;45.81;100358.19;5146505;27;20030;-71
2022/06/27 14:18:48;;;;;;;11.52;10.23;;;;;;;29.78;46.00;100354.78;5146849;27;20019;-71
2022/06/27 14:21:13;;;;;;;13.32;9.45;;;;;;;29.67;46.02;100349.56;5146298;27;20063;-72
2022/06/27 14:23:39;;;;;;;14.55;10.52;;;;;;;29.67;46.22;100355.78;5146595;27;20023;-71
2022/06/27 14:26:04;;;;;;;10.43;9.43;;;;;;;29.68;46.14;100360.13;5146595;27;20027;-71
2022/06/27 14:28:30;;;;;;;12.27;9.32;;;;;;;29.52;46.45;100363.31;5146854;27;20027;-71
2022/06/27 14:30:55;;;;;;;10.25;9.25;;;;;;;29.41;46.58;100361.63;5145656;27;20135;-73
2022/06/27 14:33:21;;;;;;;13.60;9.95;;;;;;;29.39;47.30;100354.72;5146634;27;20459;-71
2022/06/27 14:35:46;;;;;;;12.15;9.63;;;;;;;29.41;47.19;100350.09;5146239;27;20031;-71
2022/06/27 14:38:12;;;;;;;14.95;8.90;;;;;;;29.41;47.16;100360.78;5146094;27;20039;-71
2022/06/27 14:40:38;;;;;;;11.38;9.50;;;;;;;29.41;47.09;100350.94;5146549;27;20046;-71
2022/06/27 14:43:03;;;;;;;12.25;8.90;;;;;;;29.47;47.22;100348.69;5146350;27;20080;-71
2022/06/27 14:45:28;;;;;;;12.18;9.65;;;;;;;29.46;47.31;100336.31;5146057;27;20039;-72
2022/06/27 14:47:54;;;;;;;12.88;9.88;;;;;;;29.46;47.30;100328.28;5146406;27;20026;-71
2022/06/27 14:50:19;;;;;;;9.63;8.63;;;;;;;29.53;47.39;100335.63;5146241;27;20506;-71
2022/06/27 14:52:44;;;;;;;11.10;9.23;;;;;;;29.58;47.41;100343.25;5145846;27;20049;-71
2022/06/27 14:55:11;;;;;;;12.15;9.90;;;;;;;29.55;47.02;100333.63;5146193;27;20015;-71
2022/06/27 14:57:36;;;;;;;12.45;9.32;;;;;;;29.46;47.73;100328.28;5146135;27;20027;-71
2022/06/27 15:00:03;;;;;;;12.73;8.40;;;;;;;29.42;47.99;100330.38;5146239;27;20023;-71
2022/06/27 15:02:29;;;;;;;20.95;8.70;;;;;;;29.27;48.44;100330.78;5146153;27;20208;-70
2022/06/27 15:04:55;;;;;;;15.70;9.40;;;;;;;29.11;48.85;100333.16;5145518;27;20023;-71
2022/06/27 15:07:21;;;;;;;16.00;8.52;;;;;;;28.93;49.58;100331.91;5145507;27;20107;-71
2022/06/27 15:09:46;;;;;;;14.18;8.07;;;;;;;28.83;50.50;100325.72;5145804;27;20038;-71
2022/06/27 15:12:12;;;;;;;22.25;8.93;;;;;;;28.70;50.84;100336.63;5127259;27;20027;-71
2022/06/27 15:14:37;;;;;;;14.48;7.93;;;;;;;28.49;50.81;100323.28;5145550;27;20520;-73
2022/06/27 15:17:03;;;;;;;17.27;8.85;;;;;;;28.44;51.27;100337.91;5145642;27;20027;-71
2022/06/27 15:19:29;;;;;;;12.40;7.97;;;;;;;28.34;51.63;100331.63;5145632;27;20023;-72
2022/06/27 15:21:54;;;;;;;21.45;8.55;;;;;;;28.30;52.13;100325.72;5145071;27;20023;-71
2022/06/27 15:24:25;;;;;;;15.75;8.75;;;;;;;28.26;51.86;100320.78;5145252;27;20037;-71
2022/06/27 15:26:51;;;;;;;13.13;9.07;;;;;;;28.27;52.29;100327.78;5145412;27;20022;-71
2022/06/27 15:29:16;;;;;;;14.02;8.35;;;;;;;28.27;52.26;100325.97;5145467;27;20475;-71
2022/06/27 15:31:42;;;;;;;13.30;9.10;;;;;;;28.28;52.13;100332.13;5145345;27;20054;-71
2022/06/27 15:34:07;;;;;;;12.60;8.05;;;;;;;28.23;51.94;100329.03;5145043;27;20019;-71
2022/06/27 15:36:34;;;;;;;16.83;8.73;;;;;;;28.16;51.45;100329.56;5126644;27;20030;-70
2022/06/27 15:39:00;;;;;;;11.57;7.93;;;;;;;28.14;51.64;100320.84;5145298;27;20379;-71
2022/06/27 15:41:26;;;;;;;11.85;8.73;;;;;;;28.18;51.49;100324.09;5144915;27;20030;-71
2022/06/27 15:43:52;;;;;;;14.70;8.98;;;;;;;28.25;51.51;100316.38;5144843;27;20027;-71
2022/06/27 15:46:18;;;;;;;11.45;8.48;;;;;;;28.29;51.24;100310.66;5144627;27;20070;-71
2022/06/27 15:48:44;;;;;;;10.52;8.55;;;;;;;28.30;51.28;100306.16;5145202;27;20106;-71
2022/06/27 15:51:09;;;;;;;14.43;8.48;;;;;;;28.25;51.32;100303.03;5144645;27;20023;-71
2022/06/27 15:53:35;;;;;;;11.77;8.57;;;;;;;28.14;51.24;100286.13;5144977;27;20403;-71
2022/06/27 15:56:01;;;;;;;12.82;8.80;;;;;;;28.06;51.09;100301.94;5145181;27;20019;-70
2022/06/27 15:58:27;;;;;;;14.18;8.38;;;;;;;27.88;51.51;100299.00;5145029;27;20024;-73
2022/06/27 16:00:55;;;;;;;11.25;8.68;;;;;;;27.78;51.57;100298.94;5144558;27;20164;-70
2022/06/27 16:03:22;;;;;;;14.95;9.30;;;;;;;27.68;52.29;100289.06;5144763;27;20129;-66
2022/06/27 16:05:48;;;;;;;12.07;8.60;;;;;;;27.58;52.30;100296.09;5144671;27;20023;-67
2022/06/27 16:08:14;;;;;;;14.65;9.00;;;;;;;27.50;52.42;100301.19;5144303;27;20025;-73
2022/06/27 16:10:39;;;;;;;14.65;9.18;;;;;;;27.45;52.38;100293.56;5125995;27;20054;-73
2022/06/27 16:13:05;;;;;;;15.50;8.70;;;;;;;27.44;52.21;100291.91;5144606;27;20046;-73
2022/06/27 16:15:30;;;;;;;10.07;8.85;;;;;;;27.27;52.08;100285.28;5144820;27;20026;-75
2022/06/27 16:17:55;;;;;;;14.63;8.95;;;;;;;27.11;52.39;100289.19;5144549;27;20034;-74
2022/06/27 16:20:21;;;;;;;13.40;8.90;;;;;;;26.94;53.01;100306.50;5144738;27;20459;-73
2022/06/27 16:22:46;;;;;;;13.90;9.60;;;;;;;26.67;53.03;100284.59;5144537;27;20339;-73